Michael S — WDE9794 — position and weather

sailwx.info

Track history (hours):
 
Tides and Currents Weather Stations Pressure Air Temp Water Temp Dewpoint Dewpoint Depression Visibility Wind Speed Wind Dir Waves Ship Positions

Michael S

Owner: Bisso Tow Boats Inc., New Orleans, LA. More information available from US FCC via Universal Licensing System and Coast Guard Vessel Documentation Center.

Last reported at 2015-May-05 22:29 UTC. Time now 2015-May-06 04:25 UTC.
Position N 29°55' W 090°06'.

Length 33 m; draft 3 m.

Type: Towing. MMSI: 367413700.

Date/timePositionNaut miles runAvg speedWind from/ knotsBaromVisibWave heightAir tempDewpointWater temp
2015-May-05 22:29N 29°55' W 090°06'4 2.1
2015-May-05 20:30N 29°57' W 090°02'2 2.0
2015-May-05 19:30N 29°57' W 089°60'1 0.6
2015-May-05 18:06N 29°56' W 089°59'6 9.5
2015-May-05 17:27N 29°55' W 090°06'2 0.9
2015-May-05 15:20N 29°55' W 090°08'8 2.5
2015-May-05 12:18N 29°56' W 089°59'2 2.0
2015-May-05 11:30N 29°57' W 090°01'6 3.1
2015-May-05 09:27N 29°56' W 090°08'0 0.0
2015-May-05 08:12N 29°56' W 090°08'0 0.0
2015-May-05 06:16N 29°56' W 090°08'1 0.8
2015-May-05 05:14N 29°56' W 090°08'1 0.4
2015-May-05 03:24N 29°56' W 090°08'0 0.2
2015-May-05 02:28N 29°56' W 090°08'6 5.4
2015-May-05 01:21N 29°57' W 090°02'7 2.2
2015-May-04 22:07N 29°54' W 089°54'3 0.6
2015-May-04 16:33N 29°55' W 089°57'4 1.0
2015-May-04 13:04N 29°57' W 090°01'1 0.8
2015-May-04 11:24N 29°56' W 089°60'5 1.3
2015-May-04 07:09N 29°54' W 089°54'0 0.0
2015-May-04 06:27N 29°54' W 089°54'7 2.2
2015-May-04 03:22N 29°57' W 090°01'1 0.0
2015-May-02 21:31N 29°58' W 090°02'3 0.9
2015-May-02 18:14N 29°56' W 089°59'3 1.9
2015-May-02 16:28N 29°55' W 089°56'9 3.9
2015-May-02 14:09N 29°47' W 090°01'9 1.9
2015-May-02 09:24N 29°55' W 089°55'7 7.0
2015-May-02 08:25N 29°58' W 090°02'2 0.9
2015-May-02 06:32N 29°56' W 090°03'2 0.1
2015-May-01 12:08N 29°57' W 090°01'3 0.8
2015-May-01 08:33N 29°55' W 089°58'1 0.2
2015-May-01 01:26N 29°56' W 089°60'0 0.0
2015-Apr-30 19:33N 29°56' W 089°60'1 0.7
2015-Apr-30 17:33N 29°56' W 089°59'1 0.3
2015-Apr-30 15:32N 29°56' W 089°59'2 0.3
2015-Apr-30 08:03N 29°57' W 090°01'3 0.6
2015-Apr-30 03:29N 29°56' W 089°58'4 1.2
2015-Apr-30 00:18N 29°54' W 089°54'0 0.0
2015-Apr-29 20:18N 29°54' W 089°54'3 1.4
2015-Apr-29 18:28N 29°52' W 089°57'3 1.3
2015-Apr-29 16:13N 29°55' W 089°57'4 1.0
2015-Apr-29 12:07N 29°57' W 090°01'0 0.0
2015-Apr-29 08:04N 29°57' W 090°01'2 1.3
2015-Apr-29 06:19N 29°56' W 089°59'5 0.4
2015-Apr-28 18:29N 29°52' W 089°55'2 1.6
2015-Apr-28 17:21N 29°53' W 089°57'4 0.7
2015-Apr-28 11:10N 29°56' W 089°59'2 0.1
2015-Apr-27 19:31N 29°57' W 090°01'0 0.0
2015-Apr-27 17:16N 29°57' W 090°01'3 3.5
2015-Apr-27 16:33N 29°56' W 090°04'4 0.8
2015-Apr-27 12:08N 29°55' W 090°08'1 1.6
2015-Apr-27 11:14N 29°56' W 090°08'1 0.7
2015-Apr-27 10:15N 29°55' W 090°08'0 0.1
2015-Apr-27 08:32N 29°56' W 090°08'3 0.8
2015-Apr-27 04:33N 29°55' W 090°04'1 0.3
2015-Apr-27 00:31N 29°56' W 090°03'2 0.9
2015-Apr-26 22:33N 29°57' W 090°02'1 0.1
2015-Apr-26 16:16N 29°57' W 090°01'0 0.0
2015-Apr-26 15:31N 29°57' W 090°01'0 0.0
2015-Apr-26 14:10N 29°57' W 090°01'0 0.0
2015-Apr-26 11:20N 29°57' W 090°01'1 0.8
2015-Apr-26 09:24N 29°56' W 089°59'0 0.0
2015-Apr-26 08:30N 29°56' W 089°60'0 0.0
2015-Apr-26 07:33N 29°56' W 089°59'1 0.5
2015-Apr-26 06:28N 29°56' W 089°59'5 4.6
2015-Apr-26 05:28N 29°55' W 090°04'  
Track history (hours):
 
Tides and Currents Weather Stations Pressure Air Temp Water Temp Dewpoint Dewpoint Depression Visibility Wind Speed Wind Dir Waves Ship Positions

Michael S

Owner: Bisso Tow Boats Inc., New Orleans, LA. More information available from US FCC via Universal Licensing System and Coast Guard Vessel Documentation Center.

Last reported at 2015-May-05 22:29 UTC. Time now 2015-May-06 04:25 UTC.
Position N 29°55' W 090°06'.

Length 33 m; draft 3 m.

Type: Towing. MMSI: 367413700.

Date/timePositionNaut miles runAvg speedWind from/ knotsBaromVisibWave heightAir tempDewpointWater temp
2015-May-05 22:29N 29°55' W 090°06'4 2.1
2015-May-05 20:30N 29°57' W 090°02'2 2.0
2015-May-05 19:30N 29°57' W 089°60'1 0.6
2015-May-05 18:06N 29°56' W 089°59'6 9.5
2015-May-05 17:27N 29°55' W 090°06'2 0.9
2015-May-05 15:20N 29°55' W 090°08'8 2.5
2015-May-05 12:18N 29°56' W 089°59'2 2.0
2015-May-05 11:30N 29°57' W 090°01'6 3.1
2015-May-05 09:27N 29°56' W 090°08'0 0.0
2015-May-05 08:12N 29°56' W 090°08'0 0.0
2015-May-05 06:16N 29°56' W 090°08'1 0.8
2015-May-05 05:14N 29°56' W 090°08'1 0.4
2015-May-05 03:24N 29°56' W 090°08'0 0.2
2015-May-05 02:28N 29°56' W 090°08'6 5.4
2015-May-05 01:21N 29°57' W 090°02'7 2.2
2015-May-04 22:07N 29°54' W 089°54'3 0.6
2015-May-04 16:33N 29°55' W 089°57'4 1.0
2015-May-04 13:04N 29°57' W 090°01'1 0.8
2015-May-04 11:24N 29°56' W 089°60'5 1.3
2015-May-04 07:09N 29°54' W 089°54'0 0.0
2015-May-04 06:27N 29°54' W 089°54'7 2.2
2015-May-04 03:22N 29°57' W 090°01'1 0.0
2015-May-02 21:31N 29°58' W 090°02'3 0.9
2015-May-02 18:14N 29°56' W 089°59'3 1.9
2015-May-02 16:28N 29°55' W 089°56'9 3.9
2015-May-02 14:09N 29°47' W 090°01'9 1.9
2015-May-02 09:24N 29°55' W 089°55'7 7.0
2015-May-02 08:25N 29°58' W 090°02'2 0.9
2015-May-02 06:32N 29°56' W 090°03'2 0.1
2015-May-01 12:08N 29°57' W 090°01'3 0.8
2015-May-01 08:33N 29°55' W 089°58'1 0.2
2015-May-01 01:26N 29°56' W 089°60'0 0.0
2015-Apr-30 19:33N 29°56' W 089°60'1 0.7
2015-Apr-30 17:33N 29°56' W 089°59'1 0.3
2015-Apr-30 15:32N 29°56' W 089°59'2 0.3
2015-Apr-30 08:03N 29°57' W 090°01'3 0.6
2015-Apr-30 03:29N 29°56' W 089°58'4 1.2
2015-Apr-30 00:18N 29°54' W 089°54'0 0.0
2015-Apr-29 20:18N 29°54' W 089°54'3 1.4
2015-Apr-29 18:28N 29°52' W 089°57'3 1.3
2015-Apr-29 16:13N 29°55' W 089°57'4 1.0
2015-Apr-29 12:07N 29°57' W 090°01'0 0.0
2015-Apr-29 08:04N 29°57' W 090°01'2 1.3
2015-Apr-29 06:19N 29°56' W 089°59'5 0.4
2015-Apr-28 18:29N 29°52' W 089°55'2 1.6
2015-Apr-28 17:21N 29°53' W 089°57'4 0.7
2015-Apr-28 11:10N 29°56' W 089°59'2 0.1
2015-Apr-27 19:31N 29°57' W 090°01'0 0.0
2015-Apr-27 17:16N 29°57' W 090°01'3 3.5
2015-Apr-27 16:33N 29°56' W 090°04'4 0.8
2015-Apr-27 12:08N 29°55' W 090°08'1 1.6
2015-Apr-27 11:14N 29°56' W 090°08'1 0.7
2015-Apr-27 10:15N 29°55' W 090°08'0 0.1
2015-Apr-27 08:32N 29°56' W 090°08'3 0.8
2015-Apr-27 04:33N 29°55' W 090°04'1 0.3
2015-Apr-27 00:31N 29°56' W 090°03'2 0.9
2015-Apr-26 22:33N 29°57' W 090°02'1 0.1
2015-Apr-26 16:16N 29°57' W 090°01'0 0.0
2015-Apr-26 15:31N 29°57' W 090°01'0 0.0
2015-Apr-26 14:10N 29°57' W 090°01'0 0.0
2015-Apr-26 11:20N 29°57' W 090°01'1 0.8
2015-Apr-26 09:24N 29°56' W 089°59'0 0.0
2015-Apr-26 08:30N 29°56' W 089°60'0 0.0
2015-Apr-26 07:33N 29°56' W 089°59'1 0.5
2015-Apr-26 06:28N 29°56' W 089°59'5 4.6
2015-Apr-26 05:28N 29°55' W 090°04'  

Dump ship's entire track history